sensor_id;sensor_type;location;lat;lon;timestamp;P1;durP1;ratioP1;P2;durP2;ratioP2
23990;SDS011;12205;50.600;4.608;2022-12-17T00:00:25;62.67;;;13.75;;
23990;SDS011;12205;50.600;4.608;2022-12-17T00:03:10;54.45;;;15.15;;
23990;SDS011;12205;50.600;4.608;2022-12-17T00:05:54;51.20;;;12.65;;
23990;SDS011;12205;50.600;4.608;2022-12-17T00:08:44;57.97;;;13.75;;
23990;SDS011;12205;50.600;4.608;2022-12-17T00:11:30;47.15;;;12.43;;
23990;SDS011;12205;50.600;4.608;2022-12-17T00:14:14;41.50;;;11.57;;
23990;SDS011;12205;50.600;4.608;2022-12-17T00:16:59;59.97;;;13.70;;
23990;SDS011;12205;50.600;4.608;2022-12-17T00:19:49;56.83;;;13.32;;
23990;SDS011;12205;50.600;4.608;2022-12-17T00:22:34;55.88;;;13.07;;
23990;SDS011;12205;50.600;4.608;2022-12-17T00:25:18;51.95;;;13.23;;
23990;SDS011;12205;50.600;4.608;2022-12-17T00:28:09;50.60;;;13.23;;
23990;SDS011;12205;50.600;4.608;2022-12-17T00:30:54;59.80;;;14.73;;
23990;SDS011;12205;50.600;4.608;2022-12-17T00:33:39;66.13;;;15.35;;
23990;SDS011;12205;50.600;4.608;2022-12-17T00:36:24;68.72;;;16.48;;
23990;SDS011;12205;50.600;4.608;2022-12-17T00:39:10;67.07;;;14.65;;
23990;SDS011;12205;50.600;4.608;2022-12-17T00:41:51;54.13;;;13.95;;
23990;SDS011;12205;50.600;4.608;2022-12-17T00:44:37;61.90;;;13.60;;
23990;SDS011;12205;50.600;4.608;2022-12-17T00:47:21;65.55;;;14.80;;
23990;SDS011;12205;50.600;4.608;2022-12-17T00:50:07;57.28;;;13.75;;
23990;SDS011;12205;50.600;4.608;2022-12-17T00:52:52;50.13;;;13.52;;
23990;SDS011;12205;50.600;4.608;2022-12-17T00:55:37;52.70;;;12.75;;
23990;SDS011;12205;50.600;4.608;2022-12-17T00:58:21;54.60;;;15.20;;
23990;SDS011;12205;50.600;4.608;2022-12-17T01:01:08;51.00;;;12.07;;
23990;SDS011;12205;50.600;4.608;2022-12-17T01:03:52;56.28;;;13.38;;
23990;SDS011;12205;50.600;4.608;2022-12-17T01:06:37;65.00;;;15.55;;
23990;SDS011;12205;50.600;4.608;2022-12-17T01:09:21;56.63;;;13.95;;
23990;SDS011;12205;50.600;4.608;2022-12-17T01:12:12;60.20;;;14.32;;
23990;SDS011;12205;50.600;4.608;2022-12-17T01:14:56;75.68;;;16.98;;
23990;SDS011;12205;50.600;4.608;2022-12-17T01:17:43;56.55;;;13.20;;
23990;SDS011;12205;50.600;4.608;2022-12-17T01:20:27;65.53;;;15.73;;
23990;SDS011;12205;50.600;4.608;2022-12-17T01:23:14;51.47;;;13.70;;
23990;SDS011;12205;50.600;4.608;2022-12-17T01:26:00;62.08;;;14.68;;
23990;SDS011;12205;50.600;4.608;2022-12-17T01:28:45;54.58;;;13.98;;
23990;SDS011;12205;50.600;4.608;2022-12-17T01:31:30;67.20;;;16.48;;
23990;SDS011;12205;50.600;4.608;2022-12-17T01:34:16;65.90;;;16.55;;
23990;SDS011;12205;50.600;4.608;2022-12-17T01:37:01;56.35;;;15.32;;
23990;SDS011;12205;50.600;4.608;2022-12-17T01:39:47;55.20;;;13.25;;
23990;SDS011;12205;50.600;4.608;2022-12-17T01:42:37;70.18;;;16.40;;
23990;SDS011;12205;50.600;4.608;2022-12-17T01:45:24;57.25;;;15.00;;
23990;SDS011;12205;50.600;4.608;2022-12-17T01:48:12;77.10;;;18.35;;
23990;SDS011;12205;50.600;4.608;2022-12-17T01:51:01;71.65;;;16.50;;
23990;SDS011;12205;50.600;4.608;2022-12-17T01:53:48;58.55;;;15.85;;
23990;SDS011;12205;50.600;4.608;2022-12-17T01:56:36;68.97;;;15.18;;
23990;SDS011;12205;50.600;4.608;2022-12-17T01:59:27;62.40;;;15.77;;
23990;SDS011;12205;50.600;4.608;2022-12-17T02:02:25;60.40;;;12.47;;
23990;SDS011;12205;50.600;4.608;2022-12-17T02:05:10;64.82;;;15.35;;
23990;SDS011;12205;50.600;4.608;2022-12-17T02:08:04;67.25;;;15.27;;
23990;SDS011;12205;50.600;4.608;2022-12-17T02:11:02;57.88;;;15.27;;
23990;SDS011;12205;50.600;4.608;2022-12-17T02:13:57;69.22;;;14.48;;
23990;SDS011;12205;50.600;4.608;2022-12-17T02:16:54;65.20;;;14.43;;
23990;SDS011;12205;50.600;4.608;2022-12-17T02:19:48;56.35;;;14.85;;
23990;SDS011;12205;50.600;4.608;2022-12-17T02:23:05;54.08;;;13.48;;
23990;SDS011;12205;50.600;4.608;2022-12-17T02:26:12;73.90;;;15.68;;
23990;SDS011;12205;50.600;4.608;2022-12-17T02:29:12;68.85;;;16.20;;
23990;SDS011;12205;50.600;4.608;2022-12-17T02:31:57;71.20;;;16.58;;
23990;SDS011;12205;50.600;4.608;2022-12-17T02:34:54;57.45;;;14.10;;
23990;SDS011;12205;50.600;4.608;2022-12-17T02:37:45;77.75;;;18.70;;
23990;SDS011;12205;50.600;4.608;2022-12-17T02:40:31;64.93;;;14.82;;
23990;SDS011;12205;50.600;4.608;2022-12-17T02:43:19;69.50;;;17.83;;
23990;SDS011;12205;50.600;4.608;2022-12-17T02:46:07;70.13;;;15.70;;
23990;SDS011;12205;50.600;4.608;2022-12-17T02:48:49;71.63;;;18.45;;
23990;SDS011;12205;50.600;4.608;2022-12-17T02:51:34;65.35;;;14.75;;
23990;SDS011;12205;50.600;4.608;2022-12-17T02:54:19;69.80;;;16.27;;
23990;SDS011;12205;50.600;4.608;2022-12-17T02:57:04;66.00;;;15.10;;
23990;SDS011;12205;50.600;4.608;2022-12-17T02:59:50;64.13;;;17.88;;
23990;SDS011;12205;50.600;4.608;2022-12-17T03:02:34;62.10;;;15.40;;
23990;SDS011;12205;50.600;4.608;2022-12-17T03:05:21;67.40;;;17.15;;
23990;SDS011;12205;50.600;4.608;2022-12-17T03:08:05;72.65;;;16.35;;
23990;SDS011;12205;50.600;4.608;2022-12-17T03:10:50;69.88;;;17.88;;
23990;SDS011;12205;50.600;4.608;2022-12-17T03:13:35;67.78;;;14.82;;
23990;SDS011;12205;50.600;4.608;2022-12-17T03:16:20;69.97;;;18.25;;
23990;SDS011;12205;50.600;4.608;2022-12-17T03:19:05;60.30;;;14.18;;
23990;SDS011;12205;50.600;4.608;2022-12-17T03:21:52;72.05;;;15.65;;
23990;SDS011;12205;50.600;4.608;2022-12-17T03:24:36;39.33;;;11.85;;
23990;SDS011;12205;50.600;4.608;2022-12-17T03:27:21;68.85;;;16.75;;
23990;SDS011;12205;50.600;4.608;2022-12-17T03:30:07;59.05;;;13.82;;
23990;SDS011;12205;50.600;4.608;2022-12-17T03:32:54;59.45;;;15.63;;
23990;SDS011;12205;50.600;4.608;2022-12-17T03:35:39;56.60;;;14.40;;
23990;SDS011;12205;50.600;4.608;2022-12-17T03:38:24;53.55;;;14.00;;
23990;SDS011;12205;50.600;4.608;2022-12-17T03:41:08;52.15;;;13.32;;
23990;SDS011;12205;50.600;4.608;2022-12-17T03:43:53;59.22;;;16.00;;
23990;SDS011;12205;50.600;4.608;2022-12-17T03:46:34;49.13;;;12.07;;
23990;SDS011;12205;50.600;4.608;2022-12-17T03:49:20;51.47;;;14.07;;
23990;SDS011;12205;50.600;4.608;2022-12-17T03:52:05;54.13;;;13.65;;
23990;SDS011;12205;50.600;4.608;2022-12-17T03:54:50;44.80;;;14.25;;
23990;SDS011;12205;50.600;4.608;2022-12-17T03:57:34;51.38;;;12.68;;
23990;SDS011;12205;50.600;4.608;2022-12-17T04:00:19;53.83;;;14.40;;
23990;SDS011;12205;50.600;4.608;2022-12-17T04:03:04;50.05;;;12.07;;
23990;SDS011;12205;50.600;4.608;2022-12-17T04:05:50;56.05;;;15.52;;
23990;SDS011;12205;50.600;4.608;2022-12-17T04:08:34;46.63;;;12.00;;
23990;SDS011;12205;50.600;4.608;2022-12-17T04:11:18;59.25;;;15.43;;
23990;SDS011;12205;50.600;4.608;2022-12-17T04:14:03;46.17;;;11.98;;
23990;SDS011;12205;50.600;4.608;2022-12-17T04:16:47;51.25;;;14.73;;
23990;SDS011;12205;50.600;4.608;2022-12-17T04:19:32;49.72;;;11.80;;
23990;SDS011;12205;50.600;4.608;2022-12-17T04:22:18;50.60;;;14.55;;
23990;SDS011;12205;50.600;4.608;2022-12-17T04:25:03;53.72;;;13.10;;
23990;SDS011;12205;50.600;4.608;2022-12-17T04:27:48;59.15;;;14.93;;
23990;SDS011;12205;50.600;4.608;2022-12-17T04:30:33;48.95;;;11.80;;
23990;SDS011;12205;50.600;4.608;2022-12-17T04:33:17;54.53;;;14.65;;
23990;SDS011;12205;50.600;4.608;2022-12-17T04:36:02;48.70;;;11.75;;
23990;SDS011;12205;50.600;4.608;2022-12-17T04:38:48;57.58;;;15.23;;
23990;SDS011;12205;50.600;4.608;2022-12-17T04:41:33;45.58;;;10.48;;
23990;SDS011;12205;50.600;4.608;2022-12-17T04:44:17;53.17;;;13.95;;
23990;SDS011;12205;50.600;4.608;2022-12-17T04:47:02;47.03;;;11.70;;
23990;SDS011;12205;50.600;4.608;2022-12-17T04:49:47;54.63;;;13.95;;
23990;SDS011;12205;50.600;4.608;2022-12-17T04:52:31;44.35;;;11.38;;
23990;SDS011;12205;50.600;4.608;2022-12-17T04:55:17;48.75;;;14.32;;
23990;SDS011;12205;50.600;4.608;2022-12-17T04:58:02;51.00;;;11.73;;
23990;SDS011;12205;50.600;4.608;2022-12-17T05:00:47;53.63;;;14.90;;
23990;SDS011;12205;50.600;4.608;2022-12-17T05:03:34;47.90;;;12.38;;
23990;SDS011;12205;50.600;4.608;2022-12-17T05:06:18;62.95;;;15.15;;
23990;SDS011;12205;50.600;4.608;2022-12-17T05:09:03;53.95;;;13.07;;
23990;SDS011;12205;50.600;4.608;2022-12-17T05:11:49;56.97;;;15.75;;
23990;SDS011;12205;50.600;4.608;2022-12-17T05:14:34;49.08;;;12.05;;
23990;SDS011;12205;50.600;4.608;2022-12-17T05:17:18;58.17;;;14.80;;
23990;SDS011;12205;50.600;4.608;2022-12-17T05:20:03;49.80;;;12.02;;
23990;SDS011;12205;50.600;4.608;2022-12-17T05:22:49;51.63;;;14.30;;
23990;SDS011;12205;50.600;4.608;2022-12-17T05:25:42;53.80;;;13.13;;
23990;SDS011;12205;50.600;4.608;2022-12-17T05:28:28;58.75;;;14.25;;
23990;SDS011;12205;50.600;4.608;2022-12-17T05:31:13;54.88;;;12.25;;
23990;SDS011;12205;50.600;4.608;2022-12-17T05:33:57;60.63;;;13.55;;
23990;SDS011;12205;50.600;4.608;2022-12-17T05:36:42;55.50;;;13.18;;
23990;SDS011;12205;50.600;4.608;2022-12-17T05:39:26;63.72;;;14.85;;
23990;SDS011;12205;50.600;4.608;2022-12-17T05:42:11;44.80;;;11.93;;
23990;SDS011;12205;50.600;4.608;2022-12-17T05:44:57;58.63;;;13.93;;
23990;SDS011;12205;50.600;4.608;2022-12-17T05:47:41;59.63;;;12.63;;
23990;SDS011;12205;50.600;4.608;2022-12-17T05:50:28;54.97;;;13.93;;
23990;SDS011;12205;50.600;4.608;2022-12-17T05:53:12;43.10;;;11.35;;
23990;SDS011;12205;50.600;4.608;2022-12-17T05:55:57;48.83;;;12.20;;
23990;SDS011;12205;50.600;4.608;2022-12-17T05:58:42;46.30;;;10.95;;
23990;SDS011;12205;50.600;4.608;2022-12-17T06:01:28;53.15;;;14.32;;
23990;SDS011;12205;50.600;4.608;2022-12-17T06:04:24;42.60;;;11.10;;
23990;SDS011;12205;50.600;4.608;2022-12-17T06:07:08;49.28;;;12.02;;
23990;SDS011;12205;50.600;4.608;2022-12-17T06:09:53;45.88;;;10.32;;
23990;SDS011;12205;50.600;4.608;2022-12-17T06:12:37;56.05;;;11.93;;
23990;SDS011;12205;50.600;4.608;2022-12-17T06:15:22;43.33;;;10.77;;
23990;SDS011;12205;50.600;4.608;2022-12-17T06:18:08;48.90;;;11.13;;
23990;SDS011;12205;50.600;4.608;2022-12-17T06:20:53;45.78;;;11.52;;
23990;SDS011;12205;50.600;4.608;2022-12-17T06:23:37;48.55;;;12.27;;
23990;SDS011;12205;50.600;4.608;2022-12-17T06:26:22;45.30;;;11.43;;
23990;SDS011;12205;50.600;4.608;2022-12-17T06:29:06;56.03;;;12.70;;
23990;SDS011;12205;50.600;4.608;2022-12-17T06:31:51;51.15;;;12.02;;
23990;SDS011;12205;50.600;4.608;2022-12-17T06:34:37;56.72;;;13.15;;
23990;SDS011;12205;50.600;4.608;2022-12-17T06:37:22;52.80;;;12.82;;
23990;SDS011;12205;50.600;4.608;2022-12-17T06:40:07;58.92;;;13.32;;
23990;SDS011;12205;50.600;4.608;2022-12-17T06:42:53;49.45;;;12.38;;
23990;SDS011;12205;50.600;4.608;2022-12-17T06:45:38;50.60;;;11.88;;
23990;SDS011;12205;50.600;4.608;2022-12-17T06:48:23;50.85;;;12.35;;
23990;SDS011;12205;50.600;4.608;2022-12-17T06:51:09;55.58;;;12.45;;
23990;SDS011;12205;50.600;4.608;2022-12-17T06:53:54;57.10;;;13.38;;
23990;SDS011;12205;50.600;4.608;2022-12-17T06:56:38;58.22;;;13.05;;
23990;SDS011;12205;50.600;4.608;2022-12-17T06:59:25;49.88;;;12.55;;
23990;SDS011;12205;50.600;4.608;2022-12-17T07:02:10;50.17;;;12.10;;
23990;SDS011;12205;50.600;4.608;2022-12-17T07:04:55;53.33;;;13.52;;
23990;SDS011;12205;50.600;4.608;2022-12-17T07:07:40;58.65;;;12.88;;
23990;SDS011;12205;50.600;4.608;2022-12-17T07:10:25;49.92;;;13.32;;
23990;SDS011;12205;50.600;4.608;2022-12-17T07:13:10;52.67;;;12.25;;
23990;SDS011;12205;50.600;4.608;2022-12-17T07:15:55;60.63;;;13.48;;
23990;SDS011;12205;50.600;4.608;2022-12-17T07:18:39;45.55;;;11.65;;
23990;SDS011;12205;50.600;4.608;2022-12-17T07:21:24;51.10;;;12.00;;
23990;SDS011;12205;50.600;4.608;2022-12-17T07:24:11;47.65;;;10.15;;
23990;SDS011;12205;50.600;4.608;2022-12-17T07:26:56;43.65;;;11.18;;
23990;SDS011;12205;50.600;4.608;2022-12-17T07:29:41;60.92;;;12.88;;
23990;SDS011;12205;50.600;4.608;2022-12-17T07:32:25;58.88;;;12.93;;
23990;SDS011;12205;50.600;4.608;2022-12-17T07:35:10;59.65;;;13.05;;
23990;SDS011;12205;50.600;4.608;2022-12-17T07:37:57;55.28;;;14.07;;
23990;SDS011;12205;50.600;4.608;2022-12-17T07:40:44;56.05;;;12.75;;
23990;SDS011;12205;50.600;4.608;2022-12-17T07:43:29;53.72;;;12.93;;
23990;SDS011;12205;50.600;4.608;2022-12-17T07:46:14;55.72;;;13.35;;
23990;SDS011;12205;50.600;4.608;2022-12-17T07:48:58;46.25;;;11.50;;
23990;SDS011;12205;50.600;4.608;2022-12-17T07:51:43;58.95;;;13.20;;
23990;SDS011;12205;50.600;4.608;2022-12-17T07:54:28;58.95;;;13.27;;
23990;SDS011;12205;50.600;4.608;2022-12-17T07:57:14;50.10;;;13.40;;
23990;SDS011;12205;50.600;4.608;2022-12-17T07:59:59;59.75;;;14.27;;
23990;SDS011;12205;50.600;4.608;2022-12-17T08:02:43;58.47;;;14.00;;
23990;SDS011;12205;50.600;4.608;2022-12-17T08:05:24;53.15;;;13.60;;
23990;SDS011;12205;50.600;4.608;2022-12-17T08:08:10;55.38;;;12.93;;
23990;SDS011;12205;50.600;4.608;2022-12-17T08:10:57;47.58;;;12.55;;
23990;SDS011;12205;50.600;4.608;2022-12-17T08:13:48;52.40;;;12.07;;
23990;SDS011;12205;50.600;4.608;2022-12-17T08:16:33;48.45;;;11.68;;
23990;SDS011;12205;50.600;4.608;2022-12-17T08:19:18;48.75;;;12.73;;
23990;SDS011;12205;50.600;4.608;2022-12-17T08:22:02;45.30;;;11.18;;
23990;SDS011;12205;50.600;4.608;2022-12-17T08:24:47;62.60;;;12.98;;
23990;SDS011;12205;50.600;4.608;2022-12-17T08:27:31;39.35;;;10.45;;
23990;SDS011;12205;50.600;4.608;2022-12-17T08:30:17;45.45;;;12.23;;
23990;SDS011;12205;50.600;4.608;2022-12-17T08:33:02;47.13;;;12.30;;
23990;SDS011;12205;50.600;4.608;2022-12-17T08:35:50;45.65;;;11.43;;
23990;SDS011;12205;50.600;4.608;2022-12-17T08:38:36;44.85;;;11.85;;
23990;SDS011;12205;50.600;4.608;2022-12-17T08:41:20;47.63;;;11.55;;
23990;SDS011;12205;50.600;4.608;2022-12-17T08:44:05;52.15;;;12.73;;
23990;SDS011;12205;50.600;4.608;2022-12-17T08:46:50;51.42;;;11.35;;
23990;SDS011;12205;50.600;4.608;2022-12-17T08:49:35;47.75;;;11.15;;
23990;SDS011;12205;50.600;4.608;2022-12-17T08:52:20;60.92;;;13.05;;
23990;SDS011;12205;50.600;4.608;2022-12-17T08:55:04;57.58;;;11.98;;
23990;SDS011;12205;50.600;4.608;2022-12-17T08:57:53;55.35;;;13.25;;
23990;SDS011;12205;50.600;4.608;2022-12-17T09:00:38;55.70;;;11.93;;
23990;SDS011;12205;50.600;4.608;2022-12-17T09:03:24;54.08;;;12.00;;
23990;SDS011;12205;50.600;4.608;2022-12-17T09:06:09;42.70;;;11.20;;
23990;SDS011;12205;50.600;4.608;2022-12-17T09:08:54;39.22;;;10.70;;
23990;SDS011;12205;50.600;4.608;2022-12-17T09:11:39;47.28;;;11.25;;
23990;SDS011;12205;50.600;4.608;2022-12-17T09:14:25;48.28;;;11.68;;
23990;SDS011;12205;50.600;4.608;2022-12-17T09:17:10;52.65;;;12.10;;
23990;SDS011;12205;50.600;4.608;2022-12-17T09:19:56;58.78;;;12.80;;
23990;SDS011;12205;50.600;4.608;2022-12-17T09:22:41;55.13;;;12.80;;
23990;SDS011;12205;50.600;4.608;2022-12-17T09:25:25;45.42;;;11.30;;
23990;SDS011;12205;50.600;4.608;2022-12-17T09:28:10;65.57;;;13.18;;
23990;SDS011;12205;50.600;4.608;2022-12-17T09:30:57;48.90;;;11.80;;
23990;SDS011;12205;50.600;4.608;2022-12-17T09:33:42;45.42;;;11.63;;
23990;SDS011;12205;50.600;4.608;2022-12-17T09:36:28;50.92;;;12.57;;
23990;SDS011;12205;50.600;4.608;2022-12-17T09:39:13;54.17;;;12.35;;
23990;SDS011;12205;50.600;4.608;2022-12-17T09:41:59;57.22;;;13.15;;
23990;SDS011;12205;50.600;4.608;2022-12-17T09:44:52;54.15;;;12.93;;
23990;SDS011;12205;50.600;4.608;2022-12-17T09:47:48;53.47;;;11.68;;
23990;SDS011;12205;50.600;4.608;2022-12-17T09:50:43;48.25;;;10.93;;
23990;SDS011;12205;50.600;4.608;2022-12-17T09:53:33;39.97;;;10.48;;
23990;SDS011;12205;50.600;4.608;2022-12-17T09:56:22;46.33;;;9.95;;
23990;SDS011;12205;50.600;4.608;2022-12-17T09:59:11;43.35;;;9.93;;
23990;SDS011;12205;50.600;4.608;2022-12-17T10:02:08;53.33;;;12.55;;
23990;SDS011;12205;50.600;4.608;2022-12-17T10:04:57;52.45;;;11.95;;
23990;SDS011;12205;50.600;4.608;2022-12-17T10:07:45;56.92;;;13.25;;
23990;SDS011;12205;50.600;4.608;2022-12-17T10:10:32;55.60;;;13.82;;
23990;SDS011;12205;50.600;4.608;2022-12-17T10:13:18;64.03;;;14.82;;
23990;SDS011;12205;50.600;4.608;2022-12-17T10:16:15;64.55;;;14.48;;
23990;SDS011;12205;50.600;4.608;2022-12-17T10:19:10;63.05;;;15.23;;
23990;SDS011;12205;50.600;4.608;2022-12-17T10:22:06;58.10;;;13.95;;
23990;SDS011;12205;50.600;4.608;2022-12-17T10:24:53;66.95;;;17.20;;
23990;SDS011;12205;50.600;4.608;2022-12-17T10:27:39;57.13;;;14.40;;
23990;SDS011;12205;50.600;4.608;2022-12-17T10:30:23;72.93;;;18.63;;
23990;SDS011;12205;50.600;4.608;2022-12-17T10:33:10;54.38;;;14.13;;
23990;SDS011;12205;50.600;4.608;2022-12-17T10:36:17;70.95;;;16.33;;
23990;SDS011;12205;50.600;4.608;2022-12-17T10:39:04;60.92;;;14.55;;
23990;SDS011;12205;50.600;4.608;2022-12-17T10:41:50;57.85;;;13.98;;
23990;SDS011;12205;50.600;4.608;2022-12-17T10:44:36;61.88;;;14.02;;
23990;SDS011;12205;50.600;4.608;2022-12-17T10:47:22;58.67;;;13.90;;
23990;SDS011;12205;50.600;4.608;2022-12-17T10:50:10;59.45;;;14.40;;
23990;SDS011;12205;50.600;4.608;2022-12-17T10:52:58;53.83;;;14.75;;
23990;SDS011;12205;50.600;4.608;2022-12-17T10:55:47;54.00;;;13.38;;
23990;SDS011;12205;50.600;4.608;2022-12-17T10:58:35;56.55;;;13.30;;
23990;SDS011;12205;50.600;4.608;2022-12-17T11:01:28;57.67;;;14.45;;
23990;SDS011;12205;50.600;4.608;2022-12-17T11:04:28;56.00;;;12.35;;
23990;SDS011;12205;50.600;4.608;2022-12-17T11:07:16;57.05;;;13.80;;
23990;SDS011;12205;50.600;4.608;2022-12-17T11:12:58;53.75;;;12.98;;
23990;SDS011;12205;50.600;4.608;2022-12-17T11:15:51;51.72;;;12.55;;
23990;SDS011;12205;50.600;4.608;2022-12-17T11:18:41;56.45;;;13.57;;
23990;SDS011;12205;50.600;4.608;2022-12-17T11:21:34;56.13;;;13.95;;
23990;SDS011;12205;50.600;4.608;2022-12-17T11:27:15;51.33;;;12.73;;
23990;SDS011;12205;50.600;4.608;2022-12-17T11:30:10;61.00;;;14.50;;
23990;SDS011;12205;50.600;4.608;2022-12-17T11:32:54;54.85;;;13.23;;
23990;SDS011;12205;50.600;4.608;2022-12-17T11:35:55;58.22;;;14.30;;
23990;SDS011;12205;50.600;4.608;2022-12-17T11:38:52;66.22;;;15.80;;
23990;SDS011;12205;50.600;4.608;2022-12-17T11:42:01;87.30;;;19.15;;
23990;SDS011;12205;50.600;4.608;2022-12-17T11:44:54;71.43;;;16.73;;
23990;SDS011;12205;50.600;4.608;2022-12-17T11:47:53;58.38;;;13.70;;
23990;SDS011;12205;50.600;4.608;2022-12-17T11:50:45;61.43;;;13.50;;
23990;SDS011;12205;50.600;4.608;2022-12-17T11:53:42;50.55;;;12.15;;
23990;SDS011;12205;50.600;4.608;2022-12-17T11:56:40;50.63;;;12.20;;
23990;SDS011;12205;50.600;4.608;2022-12-17T11:59:31;38.53;;;10.68;;
23990;SDS011;12205;50.600;4.608;2022-12-17T12:02:25;39.30;;;10.55;;
23990;SDS011;12205;50.600;4.608;2022-12-17T12:05:32;47.53;;;11.13;;
23990;SDS011;12205;50.600;4.608;2022-12-17T12:08:27;47.30;;;11.93;;
23990;SDS011;12205;50.600;4.608;2022-12-17T12:11:23;47.13;;;12.27;;
23990;SDS011;12205;50.600;4.608;2022-12-17T12:17:19;49.20;;;12.50;;
23990;SDS011;12205;50.600;4.608;2022-12-17T12:20:18;48.95;;;12.43;;
23990;SDS011;12205;50.600;4.608;2022-12-17T12:23:21;53.03;;;12.95;;
23990;SDS011;12205;50.600;4.608;2022-12-17T12:26:23;39.38;;;10.40;;
23990;SDS011;12205;50.600;4.608;2022-12-17T12:29:27;40.38;;;10.57;;
23990;SDS011;12205;50.600;4.608;2022-12-17T12:32:24;45.03;;;11.00;;
23990;SDS011;12205;50.600;4.608;2022-12-17T12:35:21;47.22;;;11.05;;
23990;SDS011;12205;50.600;4.608;2022-12-17T12:38:09;48.30;;;12.07;;
23990;SDS011;12205;50.600;4.608;2022-12-17T12:41:14;45.75;;;11.48;;
23990;SDS011;12205;50.600;4.608;2022-12-17T12:44:10;42.25;;;10.93;;
23990;SDS011;12205;50.600;4.608;2022-12-17T12:50:01;41.58;;;11.57;;
23990;SDS011;12205;50.600;4.608;2022-12-17T12:53:00;36.90;;;11.05;;
23990;SDS011;12205;50.600;4.608;2022-12-17T12:55:46;38.92;;;11.55;;
23990;SDS011;12205;50.600;4.608;2022-12-17T12:58:31;40.03;;;11.95;;
23990;SDS011;12205;50.600;4.608;2022-12-17T13:01:19;34.60;;;10.88;;
23990;SDS011;12205;50.600;4.608;2022-12-17T13:04:28;35.38;;;11.57;;
23990;SDS011;12205;50.600;4.608;2022-12-17T13:07:20;35.53;;;10.57;;
23990;SDS011;12205;50.600;4.608;2022-12-17T13:09:52;30.48;;;10.93;;
23990;SDS011;12205;50.600;4.608;2022-12-17T13:12:26;29.73;;;9.80;;
23990;SDS011;12205;50.600;4.608;2022-12-17T13:15:01;32.47;;;10.80;;
23990;SDS011;12205;50.600;4.608;2022-12-17T13:17:45;26.58;;;9.43;;
23990;SDS011;12205;50.600;4.608;2022-12-17T13:20:28;32.10;;;9.60;;
23990;SDS011;12205;50.600;4.608;2022-12-17T13:23:24;31.77;;;10.03;;
23990;SDS011;12205;50.600;4.608;2022-12-17T13:26:16;28.80;;;9.77;;
23990;SDS011;12205;50.600;4.608;2022-12-17T13:28:59;26.50;;;9.65;;
23990;SDS011;12205;50.600;4.608;2022-12-17T13:31:43;23.10;;;9.00;;
23990;SDS011;12205;50.600;4.608;2022-12-17T13:34:26;20.73;;;8.57;;
23990;SDS011;12205;50.600;4.608;2022-12-17T13:37:09;23.48;;;8.95;;
23990;SDS011;12205;50.600;4.608;2022-12-17T13:39:50;28.88;;;9.60;;
23990;SDS011;12205;50.600;4.608;2022-12-17T13:42:28;27.70;;;8.95;;
23990;SDS011;12205;50.600;4.608;2022-12-17T13:44:58;26.33;;;8.83;;
23990;SDS011;12205;50.600;4.608;2022-12-17T13:47:28;28.30;;;9.23;;
23990;SDS011;12205;50.600;4.608;2022-12-17T13:50:00;36.38;;;8.82;;
23990;SDS011;12205;50.600;4.608;2022-12-17T13:52:44;33.63;;;9.00;;
23990;SDS011;12205;50.600;4.608;2022-12-17T13:55:15;32.33;;;9.02;;
23990;SDS011;12205;50.600;4.608;2022-12-17T13:57:46;27.58;;;8.25;;
23990;SDS011;12205;50.600;4.608;2022-12-17T14:00:19;24.52;;;7.20;;
23990;SDS011;12205;50.600;4.608;2022-12-17T14:02:50;32.30;;;8.20;;
23990;SDS011;12205;50.600;4.608;2022-12-17T14:05:24;31.95;;;7.82;;
23990;SDS011;12205;50.600;4.608;2022-12-17T14:07:56;31.95;;;8.15;;
23990;SDS011;12205;50.600;4.608;2022-12-17T14:10:27;29.05;;;8.68;;
23990;SDS011;12205;50.600;4.608;2022-12-17T14:13:00;33.65;;;8.90;;
23990;SDS011;12205;50.600;4.608;2022-12-17T14:15:32;31.40;;;7.88;;
23990;SDS011;12205;50.600;4.608;2022-12-17T14:18:00;27.65;;;7.18;;
23990;SDS011;12205;50.600;4.608;2022-12-17T14:20:30;31.17;;;8.70;;
23990;SDS011;12205;50.600;4.608;2022-12-17T14:23:01;35.30;;;8.30;;
23990;SDS011;12205;50.600;4.608;2022-12-17T14:25:34;28.35;;;8.02;;
23990;SDS011;12205;50.600;4.608;2022-12-17T14:28:04;36.15;;;8.30;;
23990;SDS011;12205;50.600;4.608;2022-12-17T14:30:48;23.92;;;6.82;;
23990;SDS011;12205;50.600;4.608;2022-12-17T14:33:24;28.20;;;7.25;;
23990;SDS011;12205;50.600;4.608;2022-12-17T14:35:56;25.15;;;6.82;;
23990;SDS011;12205;50.600;4.608;2022-12-17T14:38:26;30.10;;;7.80;;
23990;SDS011;12205;50.600;4.608;2022-12-17T14:40:55;25.95;;;7.28;;
23990;SDS011;12205;50.600;4.608;2022-12-17T14:43:53;29.25;;;7.40;;
23990;SDS011;12205;50.600;4.608;2022-12-17T14:46:24;27.33;;;7.85;;
23990;SDS011;12205;50.600;4.608;2022-12-17T14:48:53;36.40;;;10.07;;
23990;SDS011;12205;50.600;4.608;2022-12-17T14:51:31;23.27;;;6.68;;
23990;SDS011;12205;50.600;4.608;2022-12-17T14:54:04;26.77;;;7.57;;
23990;SDS011;12205;50.600;4.608;2022-12-17T14:56:43;29.33;;;7.43;;
23990;SDS011;12205;50.600;4.608;2022-12-17T14:59:22;35.15;;;9.02;;
23990;SDS011;12205;50.600;4.608;2022-12-17T15:02:00;29.67;;;7.68;;
23990;SDS011;12205;50.600;4.608;2022-12-17T15:04:44;32.42;;;8.50;;
23990;SDS011;12205;50.600;4.608;2022-12-17T15:07:13;29.67;;;7.70;;
23990;SDS011;12205;50.600;4.608;2022-12-17T15:09:49;30.40;;;7.10;;
23990;SDS011;12205;50.600;4.608;2022-12-17T15:12:17;27.05;;;6.80;;
23990;SDS011;12205;50.600;4.608;2022-12-17T15:14:44;31.25;;;8.50;;
23990;SDS011;12205;50.600;4.608;2022-12-17T15:17:12;37.03;;;8.40;;
23990;SDS011;12205;50.600;4.608;2022-12-17T15:19:40;30.55;;;8.13;;
23990;SDS011;12205;50.600;4.608;2022-12-17T15:22:09;31.65;;;9.32;;
23990;SDS011;12205;50.600;4.608;2022-12-17T15:24:43;31.88;;;7.18;;
23990;SDS011;12205;50.600;4.608;2022-12-17T15:27:11;24.70;;;7.68;;
23990;SDS011;12205;50.600;4.608;2022-12-17T15:29:40;24.73;;;7.20;;
23990;SDS011;12205;50.600;4.608;2022-12-17T15:32:09;22.38;;;6.55;;
23990;SDS011;12205;50.600;4.608;2022-12-17T15:34:43;29.08;;;8.60;;
23990;SDS011;12205;50.600;4.608;2022-12-17T15:37:10;23.92;;;7.25;;
23990;SDS011;12205;50.600;4.608;2022-12-17T15:39:39;25.55;;;6.97;;
23990;SDS011;12205;50.600;4.608;2022-12-17T15:42:07;29.08;;;7.57;;
23990;SDS011;12205;50.600;4.608;2022-12-17T15:44:52;26.05;;;7.18;;
23990;SDS011;12205;50.600;4.608;2022-12-17T15:47:19;31.10;;;7.80;;
23990;SDS011;12205;50.600;4.608;2022-12-17T15:49:46;29.98;;;7.05;;
23990;SDS011;12205;50.600;4.608;2022-12-17T15:52:14;30.20;;;7.80;;
23990;SDS011;12205;50.600;4.608;2022-12-17T15:54:42;25.42;;;6.95;;
23990;SDS011;12205;50.600;4.608;2022-12-17T15:57:10;29.10;;;7.65;;
23990;SDS011;12205;50.600;4.608;2022-12-17T15:59:37;32.80;;;7.88;;
23990;SDS011;12205;50.600;4.608;2022-12-17T16:02:05;36.25;;;7.47;;
23990;SDS011;12205;50.600;4.608;2022-12-17T16:04:32;33.80;;;8.23;;
23990;SDS011;12205;50.600;4.608;2022-12-17T16:06:59;29.45;;;8.07;;
23990;SDS011;12205;50.600;4.608;2022-12-17T16:09:26;28.65;;;8.07;;
23990;SDS011;12205;50.600;4.608;2022-12-17T16:11:55;25.50;;;6.63;;
23990;SDS011;12205;50.600;4.608;2022-12-17T16:14:23;30.60;;;7.30;;
23990;SDS011;12205;50.600;4.608;2022-12-17T16:16:50;29.98;;;8.38;;